Time;durP1;ratioP1;P1;durP2;ratioP2;P2;SDS_P1;SDS_P2;PMS_P1;PMS_P2;Temp;Humidity;BMP_temperature;BMP_pressure;BME280_temperature;BME280_humidity;BME280_pressure;Samples;Min_cycle;Max_cycle;Signal;HPM_P1;HPM_P2
2022/06/14 00:00:55;;;;;;;1999.90;999.90;;;13.40;99.90;;;;;;5067404;28;21079;-67
2022/06/14 00:03:23;;;;;;;1999.90;999.90;;;13.40;99.90;;;;;;5071490;28;20504;-68
2022/06/14 00:05:50;;;;;;;1999.90;999.90;;;13.50;99.90;;;;;;5067690;28;20241;-68
2022/06/14 00:08:18;;;;;;;1999.90;999.90;;;13.60;99.90;;;;;;5070249;28;20513;-68
2022/06/14 00:10:45;;;;;;;1999.90;999.90;;;13.60;99.90;;;;;;5068173;28;20904;-69
2022/06/14 00:13:14;;;;;;;1999.90;999.90;;;13.60;99.90;;;;;;5066822;28;20518;-68
2022/06/14 00:15:41;;;;;;;1999.90;999.90;;;13.80;99.90;;;;;;5068007;28;20453;-68
2022/06/14 00:18:08;;;;;;;1999.90;999.90;;;13.80;99.90;;;;;;5068997;28;20482;-67
2022/06/14 00:20:35;;;;;;;1999.90;999.90;;;13.80;99.90;;;;;;5070322;28;20457;-69
2022/06/14 00:23:01;;;;;;;1999.90;999.90;;;13.70;99.90;;;;;;5069929;28;20489;-68
2022/06/14 00:25:31;;;;;;;1999.90;999.90;;;13.80;99.90;;;;;;5070232;28;20894;-68
2022/06/14 00:27:58;;;;;;;1999.90;999.90;;;13.80;99.90;;;;;;5066981;28;20481;-68
2022/06/14 00:30:26;;;;;;;1999.90;999.90;;;13.60;99.90;;;;;;5069123;28;20461;-68
2022/06/14 00:32:53;;;;;;;1999.90;999.90;;;13.50;99.90;;;;;;5067585;28;20522;-68
2022/06/14 00:35:20;;;;;;;1999.90;999.90;;;13.50;99.90;;;;;;5067841;28;20462;-68
2022/06/14 00:37:47;;;;;;;1999.90;999.90;;;13.50;99.90;;;;;;5070224;28;20511;-67
2022/06/14 00:40:17;;;;;;;1999.90;999.90;;;13.40;99.90;;;;;;5065934;28;20461;-68
2022/06/14 00:42:45;;;;;;;1999.90;999.90;;;13.30;99.90;;;;;;5072375;28;20527;-68
2022/06/14 00:45:45;;;;;;;1999.90;999.90;;;13.40;99.90;;;;;;5068845;28;20461;-68
2022/06/14 00:48:19;;;;;;;1999.90;999.90;;;13.40;99.90;;;;;;5085852;22;20509;-69
2022/06/14 00:50:49;;;;;;;1999.90;999.90;;;13.40;99.90;;;;;;5066665;28;20455;-70
2022/06/14 00:53:19;;;;;;;1999.90;999.90;;;13.40;99.90;;;;;;5069154;28;20897;-74
2022/06/14 00:55:51;;;;;;;1999.90;999.90;;;13.50;99.90;;;;;;5071033;28;20485;-71
2022/06/14 00:58:23;;;;;;;1999.90;999.90;;;13.50;99.90;;;;;;5052048;28;20478;-72
2022/06/14 01:00:56;;;;;;;1999.90;999.90;;;13.40;99.90;;;;;;5044230;28;20480;-69
2022/06/14 01:03:27;;;;;;;1999.90;999.90;;;13.40;99.90;;;;;;5051711;28;20470;-70
2022/06/14 01:06:09;;;;;;;1999.90;999.90;;;13.30;99.90;;;;;;5041923;28;20506;-69
2022/06/14 01:08:38;;;;;;;1999.90;999.90;;;13.30;99.90;;;;;;5053617;28;20506;-71
2022/06/14 01:11:10;;;;;;;1999.90;999.90;;;13.20;99.90;;;;;;5052573;28;20508;-71
2022/06/14 01:13:38;;;;;;;1999.90;999.90;;;13.20;99.90;;;;;;5043181;28;20957;-72
2022/06/14 01:16:05;;;;;;;1999.90;999.90;;;13.20;99.90;;;;;;5051317;28;20892;-71
2022/06/14 01:18:34;;;;;;;1999.90;999.90;;;13.00;99.90;;;;;;5053745;28;20531;-69
2022/06/14 01:21:01;;;;;;;1999.90;999.90;;;13.00;99.90;;;;;;5053875;28;20470;-74
2022/06/14 01:23:30;;;;;;;1999.90;999.90;;;12.90;99.90;;;;;;5051756;28;20464;-71
2022/06/14 01:26:09;;;;;;;1999.90;999.90;;;12.90;99.90;;;;;;5042844;28;20493;-70
2022/06/14 01:28:38;;;;;;;1999.90;999.90;;;13.00;99.90;;;;;;5048204;28;20478;-71
2022/06/14 01:31:06;;;;;;;1999.90;999.90;;;13.00;99.90;;;;;;5053151;28;20537;-76
2022/06/14 01:33:37;;;;;;;1999.90;999.90;;;13.10;99.90;;;;;;5042327;28;20918;-70
2022/06/14 01:36:10;;;;;;;1999.90;999.90;;;13.10;99.90;;;;;;5047427;28;20849;-70
2022/06/14 01:38:38;;;;;;;1999.90;999.90;;;13.10;99.90;;;;;;5052695;28;21019;-71
2022/06/14 01:41:10;;;;;;;1999.90;999.90;;;13.30;99.90;;;;;;5052102;28;20466;-70
2022/06/14 01:43:52;;;;;;;1999.90;999.90;;;13.40;99.90;;;;;;5047039;28;20525;-71
2022/06/14 01:46:23;;;;;;;1999.90;999.90;;;13.40;99.90;;;;;;5045103;28;20470;-71
2022/06/14 01:51:50;;;;;;;1999.90;999.90;;;13.30;99.90;;;;;;5047510;28;20936;-71
2022/06/14 01:51:54;;;;;;;1999.90;999.90;;;13.20;99.90;;;;;;5051169;28;20512;-71
2022/06/14 01:54:28;;;;;;;1999.90;999.90;;;13.30;99.90;;;;;;5053247;28;20512;-71
2022/06/14 01:57:05;;;;;;;1999.90;999.90;;;13.00;99.90;;;;;;5046167;28;20483;-70
2022/06/14 01:59:45;;;;;;;1999.90;999.90;;;13.00;99.90;;;;;;5041635;28;20563;-71
2022/06/14 02:02:21;;;;;;;1999.90;999.90;;;12.90;99.90;;;;;;5050451;28;20474;-70
2022/06/14 02:04:55;;;;;;;1999.90;999.90;;;12.40;99.90;;;;;;5048141;28;20496;-72
2022/06/14 02:07:29;;;;;;;1999.90;999.90;;;12.30;99.90;;;;;;5050174;28;20489;-70
2022/06/14 02:10:03;;;;;;;1999.90;999.90;;;12.20;99.90;;;;;;5041219;28;20553;-71
2022/06/14 02:12:41;;;;;;;1999.90;999.90;;;12.10;99.90;;;;;;5047637;28;20465;-70
2022/06/14 02:15:17;;;;;;;1999.90;999.90;;;12.20;99.90;;;;;;5049841;28;20461;-70
2022/06/14 02:17:49;;;;;;;1999.90;999.90;;;12.20;99.90;;;;;;5048468;28;20509;-70
2022/06/14 02:20:20;;;;;;;1999.90;999.90;;;12.30;99.90;;;;;;5051718;28;20458;-70
2022/06/14 02:22:52;;;;;;;1999.90;999.90;;;12.30;99.90;;;;;;5039734;28;20882;-71
2022/06/14 02:25:25;;;;;;;1999.90;999.90;;;12.30;99.90;;;;;;5051790;28;20465;-71
2022/06/14 02:27:56;;;;;;;1999.90;999.90;;;12.30;99.90;;;;;;5049605;28;20551;-67
2022/06/14 02:30:27;;;;;;;1999.90;999.90;;;12.10;99.90;;;;;;5051207;28;20508;-70
2022/06/14 02:32:59;;;;;;;1999.90;999.90;;;12.10;99.90;;;;;;5044791;28;20999;-70
2022/06/14 02:35:31;;;;;;;1999.90;999.90;;;12.10;99.90;;;;;;5045914;28;20458;-71
2022/06/14 02:38:05;;;;;;;1999.90;999.90;;;12.10;99.90;;;;;;5051404;28;20485;-70
2022/06/14 02:40:39;;;;;;;1999.90;999.90;;;11.90;99.90;;;;;;5051567;28;21138;-70
2022/06/14 02:43:13;;;;;;;1999.90;999.90;;;11.50;99.90;;;;;;5052208;28;20469;-71
2022/06/14 02:45:44;;;;;;;1999.90;999.90;;;11.50;99.90;;;;;;5039981;28;20511;-71
2022/06/14 02:48:15;;;;;;;1999.90;999.90;;;11.40;99.90;;;;;;5047067;28;20482;-72
2022/06/14 02:50:46;;;;;;;1999.90;999.90;;;11.20;99.90;;;;;;5051461;28;20475;-69
2022/06/14 02:53:18;;;;;;;1999.90;999.90;;;10.90;99.90;;;;;;5050773;28;20470;-70
2022/06/14 02:55:50;;;;;;;1999.90;999.90;;;10.70;99.90;;;;;;5051967;28;20466;-69
2022/06/14 02:58:22;;;;;;;1999.90;999.90;;;10.60;99.90;;;;;;5048416;28;20482;-70
2022/06/14 03:00:56;;;;;;;1999.90;999.90;;;10.50;99.90;;;;;;5042579;28;20996;-69
2022/06/14 03:03:27;;;;;;;1999.90;999.90;;;10.70;99.90;;;;;;5050210;28;20973;-71
2022/06/14 03:05:57;;;;;;;1999.90;999.90;;;10.70;99.90;;;;;;5050104;28;20466;-72
2022/06/14 03:08:30;;;;;;;1999.90;999.90;;;10.80;99.90;;;;;;5050425;28;20482;-69
2022/06/14 03:11:07;;;;;;;1999.90;999.90;;;11.00;99.90;;;;;;5038333;28;20470;-71
2022/06/14 03:13:40;;;;;;;1999.90;999.90;;;11.00;99.90;;;;;;5047309;28;20457;-71
2022/06/14 03:16:19;;;;;;;1999.90;999.90;;;10.80;99.90;;;;;;5050725;28;20465;-71
2022/06/14 03:18:52;;;;;;;1999.90;999.90;;;10.90;99.90;;;;;;5051192;28;20477;-69
2022/06/14 03:21:27;;;;;;;1999.90;999.90;;;10.70;99.90;;;;;;5051503;28;20458;-70
2022/06/14 03:24:00;;;;;;;1999.90;999.90;;;10.70;99.90;;;;;;5038695;28;20969;-68
2022/06/14 03:26:36;;;;;;;1999.90;999.90;;;10.80;99.90;;;;;;5048075;28;20470;-71
2022/06/14 03:29:07;;;;;;;1999.90;999.90;;;10.60;99.90;;;;;;5046761;28;20470;-72
2022/06/14 03:31:38;;;;;;;1999.90;999.90;;;10.80;99.90;;;;;;5051472;28;20893;-68
2022/06/14 03:34:09;;;;;;;1999.90;999.90;;;10.50;99.90;;;;;;5047744;28;20460;-68
2022/06/14 03:36:37;;;;;;;1999.90;999.90;;;10.30;99.90;;;;;;5040564;28;20688;-69
2022/06/14 03:39:08;;;;;;;1999.90;999.90;;;10.20;99.90;;;;;;5049554;28;20469;-70
2022/06/14 03:41:40;;;;;;;1999.90;999.90;;;10.30;99.90;;;;;;5051523;28;20458;-66
2022/06/14 03:44:07;;;;;;;1999.90;999.90;;;10.30;99.90;;;;;;5047194;28;20466;-69
2022/06/14 03:46:36;;;;;;;1999.90;999.90;;;10.30;99.90;;;;;;5048460;28;20535;-68
2022/06/14 03:49:09;;;;;;;1999.90;999.90;;;10.10;99.90;;;;;;5045547;28;20471;-73
2022/06/14 03:51:46;;;;;;;1999.90;999.90;;;10.00;99.90;;;;;;5051930;28;20508;-68
2022/06/14 03:54:27;;;;;;;1999.90;999.90;;;10.10;99.90;;;;;;5051127;28;20887;-71
2022/06/14 03:57:15;;;;;;;1999.90;999.90;;;10.10;99.90;;;;;;5047614;28;20836;-67
2022/06/14 04:00:01;;;;;;;1999.90;999.90;;;10.20;99.90;;;;;;5041127;28;20463;-69
2022/06/14 04:05:29;;;;;;;1999.90;999.90;;;10.50;99.90;;;;;;5049678;28;20859;-69
2022/06/14 04:08:01;;;;;;;1999.90;999.90;;;10.50;99.90;;;;;;5050208;28;20481;-69
2022/06/14 04:10:39;;;;;;;1999.90;999.90;;;10.60;99.90;;;;;;5048637;28;20485;-70
2022/06/14 04:13:14;;;;;;;1999.90;999.90;;;10.70;99.90;;;;;;5040751;28;20554;-70
2022/06/14 04:15:47;;;;;;;1999.90;999.90;;;10.60;99.90;;;;;;5046070;28;20523;-70
2022/06/14 04:18:36;;;;;;;1999.90;999.90;;;10.50;99.90;;;;;;5051048;28;20573;-70
2022/06/14 04:21:11;;;;;;;1999.90;999.90;;;10.70;99.90;;;;;;5048329;28;20462;-71
2022/06/14 04:23:49;;;;;;;1999.90;999.90;;;11.10;99.90;;;;;;5047234;28;20454;-71
2022/06/14 04:26:23;;;;;;;1999.90;999.90;;;11.30;99.90;;;;;;5040764;28;20898;-70
2022/06/14 04:28:57;;;;;;;1999.90;999.90;;;11.40;99.90;;;;;;5054252;28;20914;-71
2022/06/14 04:31:29;;;;;;;1999.90;999.90;;;11.60;99.90;;;;;;5052234;28;20458;-70
2022/06/14 04:33:59;;;;;;;1999.90;999.90;;;12.00;99.90;;;;;;5053974;28;20462;-70
2022/06/14 04:36:32;;;;;;;1999.90;999.90;;;11.90;99.90;;;;;;5045790;28;20457;-70
2022/06/14 04:39:06;;;;;;;1999.90;999.90;;;12.10;99.90;;;;;;5046699;28;21104;-70
2022/06/14 04:41:37;;;;;;;1999.90;999.90;;;12.30;99.90;;;;;;5054154;28;20454;-71
2022/06/14 04:44:12;;;;;;;1999.90;999.90;;;12.50;99.90;;;;;;5050664;28;20455;-71
2022/06/14 04:46:42;;;;;;;1999.90;999.90;;;12.40;99.90;;;;;;5054720;28;20511;-71
2022/06/14 04:49:16;;;;;;;1999.90;999.90;;;12.50;99.90;;;;;;5054884;28;20453;-72
2022/06/14 04:51:48;;;;;;;1999.90;999.90;;;12.50;99.90;;;;;;5038093;28;20432;-71
2022/06/14 04:54:20;;;;;;;1999.90;999.90;;;12.80;99.90;;;;;;5049331;28;20462;-70
2022/06/14 04:56:52;;;;;;;1999.90;999.90;;;12.80;99.90;;;;;;5053596;28;20458;-71
2022/06/14 04:59:26;;;;;;;1999.90;999.90;;;12.70;99.90;;;;;;5051302;28;20541;-71
2022/06/14 05:01:58;;;;;;;1999.90;999.90;;;13.00;99.90;;;;;;5043672;28;20512;-69
2022/06/14 05:04:30;;;;;;;1999.90;999.90;;;13.20;99.90;;;;;;5048419;28;20455;-72
2022/06/14 05:07:03;;;;;;;1999.90;999.90;;;13.60;99.90;;;;;;5052771;28;20494;-75
2022/06/14 05:09:34;;;;;;;1999.90;999.90;;;13.80;99.90;;;;;;5048967;28;20962;-70
2022/06/14 05:12:05;;;;;;;1999.90;999.90;;;13.80;99.90;;;;;;5045466;28;20467;-71
2022/06/14 05:14:37;;;;;;;1999.90;999.90;;;13.90;99.90;;;;;;5053646;28;20955;-71
2022/06/14 05:17:09;;;;;;;1999.90;999.90;;;13.70;99.90;;;;;;5050265;28;20532;-72
2022/06/14 05:19:44;;;;;;;1999.90;999.90;;;13.90;99.90;;;;;;5052782;28;20462;-71
2022/06/14 05:22:18;;;;;;;1999.90;999.90;;;14.20;99.90;;;;;;5054035;28;20837;-70
2022/06/14 05:24:45;;;;;;;1999.90;999.90;;;14.00;99.90;;;;;;5043798;28;20526;-68
2022/06/14 05:27:24;;;;;;;1999.90;999.90;;;14.20;99.90;;;;;;5048376;28;20482;-72
2022/06/14 05:30:01;;;;;;;1999.90;999.90;;;14.40;99.90;;;;;;5049599;28;20461;-71
2022/06/14 05:32:33;;;;;;;1999.90;999.90;;;14.20;99.90;;;;;;5053010;28;20453;-70
2022/06/14 05:35:13;;;;;;;1999.90;999.90;;;14.40;99.90;;;;;;5042448;28;20463;-71
2022/06/14 05:37:48;;;;;;;1999.90;999.90;;;14.60;99.90;;;;;;5040250;28;20528;-70
2022/06/14 05:40:23;;;;;;;1999.90;999.90;;;14.50;99.90;;;;;;5048013;28;20519;-71
2022/06/14 05:42:53;;;;;;;1999.90;999.90;;;14.70;99.90;;;;;;5052427;28;20457;-71
2022/06/14 05:45:23;;;;;;;1999.90;999.90;;;14.60;99.90;;;;;;5050544;28;20458;-70
2022/06/14 05:47:55;;;;;;;1999.90;999.90;;;14.60;99.90;;;;;;5042434;28;20568;-71
2022/06/14 05:50:26;;;;;;;1999.90;999.90;;;14.80;99.90;;;;;;5046329;28;20455;-70
2022/06/14 05:52:57;;;;;;;1999.90;999.90;;;15.00;99.90;;;;;;5051398;28;20538;-71
2022/06/14 05:55:28;;;;;;;1999.90;999.90;;;15.30;99.90;;;;;;5050236;28;20513;-70
2022/06/14 05:57:59;;;;;;;1999.90;999.90;;;15.60;99.90;;;;;;5050397;28;20531;-68
2022/06/14 06:00:32;;;;;;;1999.90;999.90;;;15.70;99.90;;;;;;5048041;28;20450;-69
2022/06/14 06:03:05;;;;;;;1999.90;999.90;;;15.90;99.90;;;;;;5042121;28;20958;-70
2022/06/14 06:05:36;;;;;;;1999.90;999.90;;;15.90;99.90;;;;;;5049427;28;20474;-71
2022/06/14 06:08:09;;;;;;;1999.90;999.90;;;15.70;99.90;;;;;;5041906;28;20489;-71
2022/06/14 06:10:39;;;;;;;1999.90;999.90;;;16.00;99.90;;;;;;5047994;28;20519;-70
2022/06/14 06:13:10;;;;;;;1999.90;999.90;;;16.40;99.90;;;;;;5039052;28;20458;-71
2022/06/14 06:15:44;;;;;;;1999.90;999.90;;;16.10;99.90;;;;;;5045007;28;20455;-71
2022/06/14 06:18:15;;;;;;;1999.90;999.90;;;16.40;99.90;;;;;;5047939;28;20474;-70
2022/06/14 06:20:48;;;;;;;1999.90;999.90;;;16.60;99.90;;;;;;5044282;28;20459;-71
2022/06/14 06:23:19;;;;;;;1999.90;999.90;;;16.40;99.90;;;;;;5046918;28;20459;-70
2022/06/14 06:25:49;;;;;;;1999.90;999.90;;;16.80;99.90;;;;;;5049266;28;20458;-72
2022/06/14 06:28:23;;;;;;;1999.90;999.90;;;17.00;99.90;;;;;;5049155;28;20994;-67
2022/06/14 06:30:54;;;;;;;1999.90;999.90;;;17.00;99.90;;;;;;5044129;28;20477;-69
2022/06/14 06:33:22;;;;;;;1999.90;999.90;;;16.80;99.90;;;;;;5052614;28;20439;-68
2022/06/14 06:36:02;;;;;;;1999.90;999.90;;;17.10;99.90;;;;;;5052514;28;20446;-69
2022/06/14 06:38:36;;;;;;;1999.90;999.90;;;17.30;99.90;;;;;;5052665;28;20519;-69
2022/06/14 06:44:00;;;;;;;1999.90;999.90;;;17.60;99.90;;;;;;5049156;28;21099;-69
2022/06/14 06:46:31;;;;;;;1999.90;999.90;;;17.90;99.90;;;;;;5050188;28;20512;-72
2022/06/14 06:49:01;;;;;;;1999.90;999.90;;;17.60;99.90;;;;;;5098187;22;20581;-71
2022/06/14 06:51:35;;;;;;;1999.90;999.90;;;17.70;99.90;;;;;;5093160;28;20448;-71
2022/06/14 06:54:06;;;;;;;1999.90;999.90;;;17.70;99.80;;;;;;5092288;28;20950;-71
2022/06/14 06:56:37;;;;;;;1999.90;999.90;;;17.60;99.90;;;;;;5093064;28;20424;-71
2022/06/14 06:59:09;;;;;;;1999.90;999.90;;;17.70;99.90;;;;;;5091527;28;20484;-71
2022/06/14 07:01:40;;;;;;;1999.90;999.90;;;17.90;99.90;;;;;;5092729;28;20490;-70
2022/06/14 07:04:16;;;;;;;1999.90;999.90;;;17.90;99.90;;;;;;5092651;28;20557;-71
2022/06/14 07:06:46;;;;;;;1999.90;999.90;;;17.50;99.90;;;;;;5092388;28;20481;-71
2022/06/14 07:09:22;;;;;;;1999.90;999.90;;;17.40;99.90;;;;;;5092174;28;20549;-71
2022/06/14 07:11:54;;;;;;;1999.90;999.90;;;17.30;99.90;;;;;;5091083;28;20501;-70
2022/06/14 07:14:26;;;;;;;1999.90;999.90;;;17.30;99.90;;;;;;5092342;28;20501;-70
2022/06/14 07:17:02;;;;;;;1999.90;999.90;;;17.50;99.90;;;;;;5082368;28;20871;-70
2022/06/14 07:19:37;;;;;;;1999.90;999.90;;;17.70;99.90;;;;;;5087736;28;20456;-71
2022/06/14 07:22:13;;;;;;;1999.90;999.90;;;17.70;99.90;;;;;;5088015;28;20519;-71
2022/06/14 07:24:49;;;;;;;1999.90;999.90;;;17.90;99.90;;;;;;5088991;28;20460;-70
2022/06/14 07:27:21;;;;;;;1999.90;999.90;;;17.90;99.90;;;;;;5082404;28;20605;-71
2022/06/14 07:29:51;;;;;;;1999.90;999.90;;;18.00;99.90;;;;;;5083216;28;20499;-70
2022/06/14 07:32:25;;;;;;;1999.90;999.90;;;18.10;99.90;;;;;;5090655;28;20459;-71
2022/06/14 07:34:53;;;;;;;1999.90;999.90;;;18.40;99.90;;;;;;5082398;28;20451;-67
2022/06/14 07:37:28;;;;;;;1999.90;999.90;;;18.30;99.90;;;;;;5089091;28;20537;-70
2022/06/14 07:40:02;;;;;;;1999.90;999.90;;;17.90;99.90;;;;;;5080599;28;20457;-71
2022/06/14 07:42:37;;;;;;;1999.90;999.90;;;18.10;99.90;;;;;;5083286;28;20548;-70
2022/06/14 07:45:11;;;;;;;1999.90;999.90;;;17.90;99.90;;;;;;5089686;28;20456;-71
2022/06/14 07:47:44;;;;;;;1999.90;999.90;;;17.90;99.90;;;;;;5082847;28;20488;-71
2022/06/14 07:50:15;;;;;;;1999.90;999.90;;;18.50;99.90;;;;;;5089423;28;20460;-71
2022/06/14 07:52:48;;;;;;;1999.90;999.90;;;18.50;99.40;;;;;;5084699;28;20473;-71
2022/06/14 07:55:20;;;;;;;1999.90;999.90;;;18.30;99.90;;;;;;5083953;28;20465;-71
2022/06/14 07:57:49;;;;;;;1999.90;999.90;;;18.10;99.90;;;;;;5086173;28;20472;-70
2022/06/14 08:03:22;;;;;;;1999.90;999.90;;;18.90;99.30;;;;;;5091815;28;20557;-73
2022/06/14 08:05:51;;;;;;;1999.90;999.90;;;19.30;97.50;;;;;;5087255;28;20475;-72
2022/06/14 08:08:21;;;;;;;1999.90;999.90;;;19.10;96.50;;;;;;5088610;28;20488;-70
2022/06/14 08:10:53;;;;;;;1999.90;999.90;;;18.70;96.90;;;;;;5086836;28;20464;-70
2022/06/14 08:13:25;;;;;;;1999.90;999.90;;;18.40;97.70;;;;;;5092014;28;21027;-71
2022/06/14 08:15:55;;;;;;;1999.90;999.90;;;18.50;98.40;;;;;;5091845;28;20452;-71
2022/06/14 08:18:40;;;;;;;1999.90;999.90;;;18.70;98.30;;;;;;5091749;28;20507;-70
2022/06/14 08:21:12;;;;;;;1999.90;999.90;;;18.60;98.80;;;;;;5092836;28;20506;-69
2022/06/14 08:23:43;;;;;;;1999.90;999.90;;;18.50;97.70;;;;;;5088480;28;20453;-73
2022/06/14 08:26:15;;;;;;;1999.90;999.90;;;18.90;97.50;;;;;;5093658;28;20510;-70
2022/06/14 08:28:48;;;;;;;1999.90;999.90;;;19.50;96.20;;;;;;5089552;28;20488;-70
2022/06/14 08:31:20;;;;;;;1999.90;999.90;;;19.80;95.70;;;;;;5091678;28;20812;-73
2022/06/14 08:33:55;;;;;;;1999.90;999.90;;;19.80;96.10;;;;;;5090297;28;20970;-70
2022/06/14 08:36:27;;;;;;;1999.90;999.90;;;20.00;96.10;;;;;;5091608;28;20448;-73
2022/06/14 08:38:56;;;;;;;1999.90;999.90;;;20.00;95.70;;;;;;5089827;28;20891;-73
2022/06/14 08:41:44;;;;;;;1999.90;999.90;;;20.00;95.70;;;;;;5084893;28;20456;-72
2022/06/14 08:44:15;;;;;;;1999.90;999.90;;;19.90;95.10;;;;;;5092191;28;20464;-70
2022/06/14 08:46:57;;;;;;;1999.90;999.90;;;19.60;95.30;;;;;;5092670;28;20471;-71
2022/06/14 08:49:42;;;;;;;1999.90;999.90;;;19.50;95.60;;;;;;5093773;28;20652;-70
2022/06/14 08:52:50;;;;;;;1999.90;999.90;;;19.40;95.70;;;;;;5095537;28;20524;-70
2022/06/14 08:55:43;;;;;;;1999.90;999.90;;;19.20;96.50;;;;;;5063244;28;20460;-71
2022/06/14 08:59:03;;;;;;;1999.90;999.90;;;19.20;96.60;;;;;;5094646;28;20490;-69
2022/06/14 09:01:51;;;;;;;1999.90;999.90;;;19.70;96.00;;;;;;5089815;28;20539;-71
2022/06/14 09:04:48;;;;;;;1999.90;999.90;;;20.00;95.70;;;;;;5093681;28;20436;-71
2022/06/14 09:07:47;;;;;;;1999.90;999.90;;;20.20;95.50;;;;;;5095983;28;20464;-71
2022/06/14 09:10:26;;;;;;;1999.90;999.90;;;20.00;95.10;;;;;;5095446;28;20928;-71
2022/06/14 09:13:21;;;;;;;1999.90;999.90;;;20.20;94.80;;;;;;5094940;28;20509;-71
2022/06/14 09:16:05;;;;;;;1999.90;999.90;;;20.30;95.30;;;;;;5094348;28;20465;-71
2022/06/14 09:18:39;;;;;;;1999.90;999.90;;;20.00;95.30;;;;;;5093822;28;20542;-71
2022/06/14 09:21:31;;;;;;;1999.90;999.90;;;19.90;95.70;;;;;;5095785;28;20441;-71
2022/06/14 09:24:13;;;;;;;1999.90;999.90;;;20.10;95.80;;;;;;5095142;28;21001;-70
2022/06/14 09:26:50;;;;;;;1999.90;999.90;;;20.30;94.40;;;;;;5095404;28;20441;-70
2022/06/14 09:29:59;;;;;;;1999.90;999.90;;;20.10;95.00;;;;;;5094563;28;20510;-69
2022/06/14 09:33:13;;;;;;;1999.90;999.90;;;19.80;94.70;;;;;;5095417;28;20441;-71
2022/06/14 09:36:13;;;;;;;1999.90;999.90;;;19.90;94.90;;;;;;5095732;28;20472;-71
2022/06/14 09:39:20;;;;;;;1999.90;999.90;;;19.90;94.60;;;;;;5095022;28;20498;-71
2022/06/14 09:42:26;;;;;;;1999.90;999.90;;;20.30;94.00;;;;;;5088011;28;20464;-71
2022/06/14 09:45:23;;;;;;;1999.90;999.90;;;20.30;94.40;;;;;;5094070;28;20518;-71
2022/06/14 09:48:34;;;;;;;1999.90;999.90;;;20.40;94.40;;;;;;5087942;28;20472;-71
2022/06/14 09:51:35;;;;;;;1999.90;999.90;;;20.60;93.80;;;;;;5095683;28;20432;-70
2022/06/14 09:54:46;;;;;;;1999.90;999.90;;;20.40;94.00;;;;;;5094809;28;20455;-71
2022/06/14 09:57:27;;;;;;;1999.90;999.90;;;20.50;94.20;;;;;;5092678;28;20518;-70
2022/06/14 10:00:21;;;;;;;1999.90;999.90;;;20.80;93.00;;;;;;5093835;28;20433;-71
2022/06/14 10:03:16;;;;;;;1999.90;999.90;;;21.20;93.10;;;;;;5093912;28;20425;-71
2022/06/14 10:05:53;;;;;;;1999.90;999.90;;;21.50;92.40;;;;;;5093631;28;20478;-71
2022/06/14 10:08:49;;;;;;;1999.90;999.90;;;21.50;92.80;;;;;;5091832;28;20483;-70
2022/06/14 10:11:27;;;;;;;1999.90;999.90;;;21.30;92.30;;;;;;5093744;28;20448;-70
2022/06/14 10:14:19;;;;;;;1999.90;999.90;;;21.00;92.10;;;;;;5093877;28;20478;-71
2022/06/14 10:17:22;;;;;;;1999.90;999.90;;;21.10;92.20;;;;;;5092128;28;20467;-72
2022/06/14 10:20:15;;;;;;;1999.90;999.90;;;21.40;91.90;;;;;;5068235;28;20510;-71
2022/06/14 10:22:55;;;;;;;1999.90;999.90;;;21.50;92.60;;;;;;5068588;28;20484;-71
2022/06/14 10:25:30;;;;;;;1999.90;999.90;;;22.30;92.30;;;;;;5092800;28;20478;-71
2022/06/14 10:28:14;;;;;;;1999.90;999.90;;;22.10;90.00;;;;;;5093131;28;20491;-70
2022/06/14 10:31:05;;;;;;;1999.90;999.90;;;21.70;91.60;;;;;;5093034;28;20528;-69
2022/06/14 10:33:42;;;;;;;1999.90;999.90;;;21.90;91.40;;;;;;5088563;28;20484;-71
2022/06/14 10:36:23;;;;;;;1999.90;999.90;;;21.80;91.30;;;;;;5093277;28;20479;-71
2022/06/14 10:39:02;;;;;;;1999.90;999.90;;;21.70;91.80;;;;;;5091422;28;20484;-71
2022/06/14 10:41:36;;;;;;;1999.90;999.90;;;21.70;91.40;;;;;;5092964;28;20444;-71
2022/06/14 10:44:14;;;;;;;1999.90;999.90;;;21.60;91.10;;;;;;5092790;28;20942;-71
2022/06/14 10:46:59;;;;;;;1999.90;999.90;;;21.90;91.60;;;;;;5093000;28;20474;-71
2022/06/14 10:49:57;;;;;;;1999.90;999.90;;;21.80;90.60;;;;;;5092473;28;20476;-70
2022/06/14 10:52:36;;;;;;;1999.90;999.90;;;21.40;90.80;;;;;;5090178;28;20456;-71
2022/06/14 10:55:23;;;;;;;1999.90;999.90;;;21.60;90.90;;;;;;5081966;28;20594;-70
2022/06/14 10:58:06;;;;;;;1999.90;999.90;;;21.40;90.70;;;;;;5087630;28;20483;-70
2022/06/14 11:00:42;;;;;;;1999.90;999.90;;;21.20;91.40;;;;;;5092916;28;20477;-70
2022/06/14 11:03:24;;;;;;;1999.90;999.90;;;21.50;91.90;;;;;;5093033;28;20436;-71
2022/06/14 11:06:18;;;;;;;1999.90;999.90;;;21.80;91.70;;;;;;5091194;28;20467;-71
2022/06/14 11:08:55;;;;;;;1999.90;999.90;;;21.60;91.20;;;;;;5083545;28;20980;-70
2022/06/14 11:11:45;;;;;;;1999.90;999.90;;;21.50;92.00;;;;;;5093554;28;20424;-71
2022/06/14 11:14:20;;;;;;;1999.90;999.90;;;21.20;92.10;;;;;;5094000;28;20494;-70
2022/06/14 11:17:07;;;;;;;1999.90;999.90;;;21.00;92.40;;;;;;5094119;28;20482;-70
2022/06/14 11:19:47;;;;;;;1999.90;999.90;;;21.10;92.60;;;;;;5091617;28;20812;-71
2022/06/14 11:22:30;;;;;;;1999.90;999.90;;;20.80;92.70;;;;;;5089577;28;20459;-70
2022/06/14 11:25:03;;;;;;;1999.90;999.90;;;21.10;93.50;;;;;;5092420;28;20912;-71
2022/06/14 11:27:37;;;;;;;1999.90;999.90;;;21.30;92.10;;;;;;5093111;28;20886;-69
2022/06/14 11:30:12;;;;;;;1999.90;999.90;;;21.00;92.60;;;;;;5092990;28;20495;-71
2022/06/14 11:32:46;;;;;;;1999.90;999.90;;;21.20;93.10;;;;;;5091187;28;20509;-71
2022/06/14 11:35:31;;;;;;;1999.90;999.90;;;21.30;92.20;;;;;;5091936;28;20432;-70
2022/06/14 11:38:18;;;;;;;1999.90;999.90;;;21.40;93.00;;;;;;5092535;28;20479;-70
2022/06/14 11:40:49;;;;;;;1999.90;999.90;;;21.40;92.80;;;;;;5092541;28;20444;-71
2022/06/14 11:43:31;;;;;;;1999.90;999.90;;;21.30;92.00;;;;;;5092698;28;20502;-69
2022/06/14 11:46:05;;;;;;;1999.90;999.90;;;21.20;92.10;;;;;;5091312;28;20443;-71
2022/06/14 11:48:38;;;;;;;1999.90;999.90;;;21.20;92.60;;;;;;5091444;28;20472;-71
2022/06/14 11:51:23;;;;;;;1999.90;999.90;;;21.50;92.40;;;;;;5092141;28;20448;-71
2022/06/14 11:54:14;;;;;;;1999.90;999.90;;;21.60;92.60;;;;;;5091716;28;20531;-70
2022/06/14 11:56:54;;;;;;;1999.90;999.90;;;21.90;92.00;;;;;;5091772;28;20486;-71
2022/06/14 11:59:45;;;;;;;1999.90;999.90;;;22.20;92.00;;;;;;5078047;28;20510;-71
2022/06/14 12:02:28;;;;;;;1999.90;999.90;;;22.20;91.20;;;;;;5087305;28;20509;-70
2022/06/14 12:05:04;;;;;;;1999.90;999.90;;;21.90;91.80;;;;;;5085823;28;20487;-71
2022/06/14 12:07:37;;;;;;;1999.90;999.90;;;21.70;91.70;;;;;;5087752;28;20529;-70
2022/06/14 12:10:32;;;;;;;1999.90;999.90;;;21.50;92.30;;;;;;5087334;28;21078;-71
2022/06/14 12:13:13;;;;;;;1999.90;999.90;;;22.10;92.30;;;;;;5083265;28;20497;-70
2022/06/14 12:15:47;;;;;;;1999.90;999.90;;;22.20;91.30;;;;;;5088648;28;20510;-70
2022/06/14 12:18:17;;;;;;;1999.90;999.90;;;22.10;91.10;;;;;;5090846;28;20463;-71
2022/06/14 12:20:59;;;;;;;1999.90;999.90;;;22.00;91.60;;;;;;5091778;28;20797;-71
2022/06/14 12:23:32;;;;;;;1999.90;999.90;;;22.20;92.00;;;;;;5088151;28;20913;-70
2022/06/14 12:28:57;;;;;;;1999.90;999.90;;;22.00;91.20;;;;;;5085870;28;20496;-71
2022/06/14 12:31:29;;;;;;;1999.90;999.90;;;21.60;91.70;;;;;;5086905;28;21089;-70
2022/06/14 12:34:00;;;;;;;1999.90;999.90;;;21.40;91.80;;;;;;5087830;28;20971;-71
2022/06/14 12:36:36;;;;;;;1999.90;999.90;;;21.50;92.50;;;;;;5088622;28;20517;-70
2022/06/14 12:39:11;;;;;;;1999.90;999.90;;;21.80;92.10;;;;;;5085081;28;20601;-69
2022/06/14 12:41:50;;;;;;;1999.90;999.90;;;21.90;91.40;;;;;;5084270;28;20513;-70
2022/06/14 12:44:41;;;;;;;1999.90;999.90;;;22.00;91.40;;;;;;5085879;28;20459;-71
2022/06/14 12:47:13;;;;;;;1999.90;999.90;;;22.30;90.90;;;;;;5087312;28;20468;-70
2022/06/14 12:49:45;;;;;;;1999.90;999.90;;;22.20;91.10;;;;;;5087166;22;20489;-70
2022/06/14 12:52:18;;;;;;;1999.90;999.90;;;22.20;90.90;;;;;;5070147;28;20470;-70
2022/06/14 12:54:52;;;;;;;1999.90;999.90;;;22.00;91.60;;;;;;5064838;28;21030;-70